createdAt,value
2023-08-29T00:00:01.163Z,1.10
2023-08-29T00:02:32.970Z,1.15
2023-08-29T00:05:00.260Z,0.70
2023-08-29T00:07:27.108Z,1.10
2023-08-29T00:09:56.568Z,1.15
2023-08-29T00:12:23.407Z,0.98
2023-08-29T00:14:50.870Z,1.05
2023-08-29T00:17:17.604Z,0.73
2023-08-29T00:19:44.450Z,0.90
2023-08-29T00:22:11.204Z,0.90
2023-08-29T00:24:37.989Z,0.85
2023-08-29T00:27:04.933Z,0.60
2023-08-29T00:29:31.661Z,0.55
2023-08-29T00:31:58.397Z,0.60
2023-08-29T00:34:25.195Z,0.80
2023-08-29T00:36:53.132Z,0.60
2023-08-29T00:39:20.256Z,0.80
2023-08-29T00:41:50.344Z,0.63
2023-08-29T00:44:17.792Z,0.70
2023-08-29T00:46:46.235Z,0.70
2023-08-29T00:49:20.388Z,0.70
2023-08-29T00:51:47.692Z,0.68
2023-08-29T00:54:16.971Z,0.60
2023-08-29T00:56:45.518Z,1.23
2023-08-29T00:59:12.768Z,0.93
2023-08-29T01:01:40.104Z,1.10
2023-08-29T01:04:07.082Z,1.27
2023-08-29T01:06:34.407Z,1.00
2023-08-29T01:09:01.401Z,1.20
2023-08-29T01:11:43.076Z,1.00
2023-08-29T01:14:31.476Z,1.38
2023-08-29T01:17:09.419Z,1.30
2023-08-29T01:19:41.248Z,2.00
2023-08-29T01:22:10.900Z,1.50
2023-08-29T01:24:46.543Z,1.90
2023-08-29T01:27:14.097Z,2.75
2023-08-29T01:29:42.324Z,2.40
2023-08-29T01:32:09.609Z,1.65
2023-08-29T01:34:36.466Z,1.35
2023-08-29T01:37:03.215Z,0.90
2023-08-29T01:39:30.113Z,0.75
2023-08-29T01:41:56.904Z,0.70
2023-08-29T01:44:23.669Z,0.90
2023-08-29T01:46:50.428Z,0.90
2023-08-29T01:49:17.639Z,0.47
2023-08-29T01:51:44.617Z,0.50
2023-08-29T01:54:11.559Z,0.60
2023-08-29T01:56:41.069Z,0.60
2023-08-29T01:59:08.908Z,0.77
2023-08-29T02:01:35.823Z,0.63
2023-08-29T02:04:02.640Z,0.90
2023-08-29T02:06:29.403Z,0.65
2023-08-29T02:08:56.242Z,0.70
2023-08-29T02:11:23.012Z,0.70
2023-08-29T02:13:49.763Z,0.63
2023-08-29T02:16:16.582Z,0.90
2023-08-29T02:18:43.488Z,0.82
2023-08-29T02:21:10.238Z,1.00
2023-08-29T02:23:37.344Z,1.10
2023-08-29T02:26:05.690Z,1.55
2023-08-29T02:28:40.066Z,1.42
2023-08-29T02:31:09.026Z,1.60
2023-08-29T02:33:40.938Z,1.80
2023-08-29T02:36:08.263Z,1.30
2023-08-29T02:38:35.447Z,1.65
2023-08-29T02:41:02.474Z,1.35
2023-08-29T02:43:29.537Z,1.40
2023-08-29T02:45:56.482Z,2.10
2023-08-29T02:48:23.437Z,1.90
2023-08-29T02:50:50.301Z,1.90
2023-08-29T02:53:21.738Z,1.60
2023-08-29T02:55:53.000Z,1.67
2023-08-29T02:58:20.963Z,2.35
2023-08-29T03:00:49.118Z,2.35
2023-08-29T03:03:18.008Z,2.63
2023-08-29T03:05:56.785Z,3.13
2023-08-29T03:08:23.677Z,2.83
2023-08-29T03:10:54.226Z,3.58
2023-08-29T03:13:21.124Z,3.85
2023-08-29T03:15:48.391Z,3.78
2023-08-29T03:18:15.587Z,4.25
2023-08-29T03:20:43.388Z,4.05
2023-08-29T03:23:10.463Z,4.72
2023-08-29T03:25:37.509Z,5.35
2023-08-29T03:28:04.912Z,3.97
2023-08-29T03:30:32.051Z,4.32
2023-08-29T03:32:59.351Z,5.25
2023-08-29T03:35:26.230Z,5.10
2023-08-29T03:37:52.980Z,3.85
2023-08-29T03:40:19.872Z,4.30
2023-08-29T03:42:47.557Z,4.55
2023-08-29T03:45:14.356Z,4.28
2023-08-29T03:47:41.118Z,4.38
2023-08-29T03:50:08.872Z,4.55
2023-08-29T03:52:35.645Z,4.18
2023-08-29T03:55:02.473Z,4.00
2023-08-29T03:57:29.268Z,4.60
2023-08-29T03:59:56.605Z,4.55
2023-08-29T04:02:23.549Z,4.60
2023-08-29T04:04:53.421Z,3.83
2023-08-29T04:07:20.680Z,4.20
2023-08-29T04:09:47.479Z,3.80
2023-08-29T04:12:14.272Z,3.05
2023-08-29T04:14:41.123Z,3.60
2023-08-29T04:17:07.892Z,2.67
2023-08-29T04:19:34.962Z,2.95
2023-08-29T04:22:02.174Z,2.65
2023-08-29T04:24:30.729Z,3.80
2023-08-29T04:26:57.624Z,2.97
2023-08-29T04:29:24.435Z,3.03
2023-08-29T04:31:51.339Z,2.85
2023-08-29T04:34:18.467Z,3.08
2023-08-29T04:36:46.644Z,3.03
2023-08-29T04:39:13.497Z,3.40
2023-08-29T04:41:40.258Z,3.00
2023-08-29T04:44:07.512Z,2.30
2023-08-29T04:46:34.308Z,3.20
2023-08-29T04:49:01.194Z,3.17
2023-08-29T04:51:27.956Z,3.33
2023-08-29T04:53:54.666Z,3.78
2023-08-29T04:56:26.003Z,4.70
2023-08-29T04:58:52.851Z,3.80
2023-08-29T05:01:19.727Z,2.42
2023-08-29T05:03:46.544Z,2.63
2023-08-29T05:06:13.395Z,2.35
2023-08-29T05:08:40.119Z,1.80
2023-08-29T05:11:06.854Z,2.00
2023-08-29T05:13:33.692Z,1.70
2023-08-29T05:16:00.577Z,1.50
2023-08-29T05:18:28.582Z,1.38
2023-08-29T05:20:55.953Z,1.40
2023-08-29T05:23:23.368Z,1.60
2023-08-29T05:25:50.812Z,1.10
2023-08-29T05:28:17.590Z,1.10
2023-08-29T05:30:44.821Z,1.10
2023-08-29T05:33:12.356Z,1.05
2023-08-29T05:35:39.130Z,0.95
2023-08-29T05:38:06.177Z,1.17
2023-08-29T05:40:34.483Z,0.90
2023-08-29T05:43:01.494Z,0.73
2023-08-29T05:45:28.256Z,0.98
2023-08-29T05:47:55.129Z,1.48
2023-08-29T05:50:21.910Z,1.00
2023-08-29T05:52:48.691Z,1.00
2023-08-29T05:55:15.529Z,1.05
2023-08-29T05:57:42.343Z,1.20
2023-08-29T06:00:10.458Z,1.20
2023-08-29T06:02:37.277Z,1.35
2023-08-29T06:05:07.492Z,1.17
2023-08-29T06:07:34.773Z,1.27
2023-08-29T06:10:01.666Z,1.77
2023-08-29T06:12:28.430Z,1.48
2023-08-29T06:14:55.470Z,2.20
2023-08-29T06:17:22.234Z,2.03
2023-08-29T06:19:49.076Z,1.92
2023-08-29T06:22:15.902Z,1.90
2023-08-29T06:24:42.799Z,2.00
2023-08-29T06:27:09.587Z,2.10
2023-08-29T06:29:36.449Z,2.33
2023-08-29T06:32:03.230Z,3.40
2023-08-29T06:34:30.026Z,2.45
2023-08-29T06:36:58.945Z,2.15
2023-08-29T06:39:25.846Z,2.07
2023-08-29T06:41:52.590Z,1.90
2023-08-29T06:44:19.358Z,1.92
2023-08-29T06:46:46.144Z,2.03
2023-08-29T06:49:12.865Z,1.65
2023-08-29T06:51:39.654Z,1.50
2023-08-29T06:54:06.447Z,1.80
2023-08-29T06:56:33.204Z,1.60
2023-08-29T06:59:00.100Z,1.35
2023-08-29T07:01:26.977Z,1.65
2023-08-29T07:03:53.996Z,1.40
2023-08-29T07:06:22.364Z,1.40
2023-08-29T07:08:49.257Z,1.25
2023-08-29T07:11:15.995Z,1.30
2023-08-29T07:13:42.814Z,1.08
2023-08-29T07:16:09.541Z,1.13
2023-08-29T07:18:36.307Z,1.05
2023-08-29T07:21:03.060Z,1.00
2023-08-29T07:23:30.615Z,1.00
2023-08-29T07:25:57.420Z,0.82
2023-08-29T07:28:24.393Z,1.25
2023-08-29T07:30:54.286Z,0.73
2023-08-29T07:33:21.636Z,1.20
2023-08-29T07:35:49.642Z,0.80
2023-08-29T07:38:18.858Z,0.68
2023-08-29T07:40:47.044Z,0.75
2023-08-29T07:43:16.009Z,0.70
2023-08-29T07:45:43.156Z,0.80
2023-08-29T07:48:10.687Z,1.67
2023-08-29T07:50:37.926Z,0.73
2023-08-29T07:53:04.892Z,0.52
2023-08-29T07:55:32.860Z,0.38
2023-08-29T07:58:00.791Z,0.40
2023-08-29T08:00:29.598Z,0.30
2023-08-29T08:02:57.112Z,0.30
2023-08-29T08:05:24.716Z,0.40
2023-08-29T08:07:51.596Z,0.40
2023-08-29T08:10:19.171Z,0.40
2023-08-29T08:12:50.529Z,0.40
2023-08-29T08:15:17.879Z,0.30
2023-08-29T08:17:45.294Z,0.40
2023-08-29T08:20:13.399Z,0.40
2023-08-29T08:22:41.935Z,0.40
2023-08-29T08:25:10.579Z,0.30
2023-08-29T08:27:37.785Z,0.30
2023-08-29T08:30:08.921Z,0.40
2023-08-29T08:32:36.261Z,0.63
2023-08-29T08:35:07.733Z,0.40
2023-08-29T08:37:35.538Z,0.40
2023-08-29T08:40:02.539Z,0.30
2023-08-29T08:42:31.450Z,0.30
2023-08-29T08:44:58.518Z,0.40
2023-08-29T08:47:25.702Z,0.45
2023-08-29T08:49:52.700Z,0.20
2023-08-29T08:52:19.566Z,0.43
2023-08-29T08:54:46.417Z,0.30
2023-08-29T08:57:14.755Z,0.30
2023-08-29T08:59:43.394Z,0.20
2023-08-29T09:02:14.673Z,0.30
2023-08-29T09:04:41.722Z,0.30
2023-08-29T09:07:08.530Z,0.40
2023-08-29T09:09:35.393Z,0.15
2023-08-29T09:12:02.281Z,0.10
2023-08-29T09:14:29.144Z,0.30
2023-08-29T09:17:01.261Z,0.40
2023-08-29T09:19:31.320Z,0.20
2023-08-29T09:21:59.130Z,0.30
2023-08-29T09:24:38.425Z,0.20
2023-08-29T09:27:10.895Z,0.38
2023-08-29T09:29:38.082Z,0.30
2023-08-29T09:32:15.346Z,0.70
2023-08-29T09:34:42.843Z,0.35
2023-08-29T09:37:12.275Z,0.50
2023-08-29T09:39:39.224Z,0.22
2023-08-29T09:42:11.729Z,0.28
2023-08-29T09:44:41.041Z,0.40
2023-08-29T09:47:10.479Z,0.70
2023-08-29T09:49:45.195Z,0.30
2023-08-29T09:52:12.047Z,0.40
2023-08-29T09:54:46.458Z,0.43
2023-08-29T09:57:16.648Z,0.38
2023-08-29T09:59:44.670Z,0.20
2023-08-29T10:02:13.094Z,0.20
2023-08-29T10:04:46.038Z,0.30
2023-08-29T10:07:26.590Z,0.40
2023-08-29T10:09:54.205Z,0.20
2023-08-29T10:12:22.066Z,0.20
2023-08-29T10:14:49.693Z,0.10
2023-08-29T10:17:29.652Z,0.20
2023-08-29T10:20:00.157Z,0.17
2023-08-29T10:22:31.454Z,0.20
2023-08-29T10:25:02.085Z,0.10
2023-08-29T10:27:29.023Z,0.20
2023-08-29T10:30:03.673Z,0.10
2023-08-29T10:32:31.544Z,0.30
2023-08-29T10:34:59.041Z,0.30
2023-08-29T10:37:27.353Z,0.30
2023-08-29T10:39:54.735Z,0.25
2023-08-29T10:42:21.527Z,0.20
2023-08-29T10:44:50.414Z,0.30
2023-08-29T10:47:27.856Z,0.13
2023-08-29T10:50:03.700Z,0.22
2023-08-29T10:52:37.764Z,0.35
2023-08-29T10:55:19.530Z,0.22
2023-08-29T10:57:46.315Z,0.20
2023-08-29T11:00:21.581Z,0.30
2023-08-29T11:02:49.238Z,0.20
2023-08-29T11:05:16.979Z,0.32
2023-08-29T11:07:44.317Z,0.32
2023-08-29T11:10:23.300Z,0.10
2023-08-29T11:13:07.729Z,0.28
2023-08-29T11:15:53.053Z,0.20
2023-08-29T11:18:24.209Z,0.30
2023-08-29T11:20:51.203Z,0.38
2023-08-29T11:23:18.400Z,0.20
2023-08-29T11:25:45.303Z,0.10
2023-08-29T11:28:12.008Z,0.20
2023-08-29T11:30:44.179Z,0.20
2023-08-29T11:33:11.515Z,0.28
2023-08-29T11:35:38.348Z,0.10
2023-08-29T11:38:07.510Z,0.20
2023-08-29T11:40:45.923Z,0.10
2023-08-29T11:43:37.178Z,0.20
2023-08-29T11:46:10.362Z,0.20
2023-08-29T11:48:37.348Z,0.10
2023-08-29T11:51:08.834Z,0.20
2023-08-29T11:53:37.782Z,0.10
2023-08-29T11:56:05.923Z,0.20
2023-08-29T11:58:36.608Z,0.35
2023-08-29T12:01:10.649Z,0.25
2023-08-29T12:03:39.286Z,0.20
2023-08-29T12:06:14.048Z,0.20
2023-08-29T12:08:44.626Z,0.20
2023-08-29T12:11:17.128Z,0.20
2023-08-29T12:14:02.510Z,0.30
2023-08-29T12:16:29.864Z,0.30
2023-08-29T12:19:07.520Z,0.17
2023-08-29T12:21:34.242Z,0.30
2023-08-29T12:24:11.775Z,0.40
2023-08-29T12:26:39.013Z,0.22
2023-08-29T12:29:05.797Z,0.38
2023-08-29T12:31:33.248Z,0.20
2023-08-29T12:33:59.962Z,0.15
2023-08-29T12:36:26.842Z,0.35
2023-08-29T12:38:53.685Z,0.30
2023-08-29T12:41:20.698Z,0.40
2023-08-29T12:43:47.457Z,0.30
2023-08-29T12:46:14.514Z,0.45
2023-08-29T12:48:42.198Z,0.50
2023-08-29T12:51:09.249Z,0.43
2023-08-29T12:53:37.017Z,0.50
2023-08-29T12:56:03.860Z,0.40
2023-08-29T12:58:30.639Z,0.50
2023-08-29T13:00:57.782Z,0.50
2023-08-29T13:03:24.683Z,0.50
2023-08-29T13:05:51.628Z,0.60
2023-08-29T13:08:19.832Z,0.50
2023-08-29T13:10:46.927Z,0.50
2023-08-29T13:13:13.714Z,0.38
2023-08-29T13:15:50.462Z,0.20
2023-08-29T13:18:18.267Z,0.40
2023-08-29T13:20:45.063Z,0.50
2023-08-29T13:23:11.872Z,0.50
2023-08-29T13:25:38.774Z,0.30
2023-08-29T13:28:06.154Z,0.35
2023-08-29T13:30:33.857Z,0.35
2023-08-29T13:33:00.741Z,0.40
2023-08-29T13:35:27.461Z,0.40
2023-08-29T13:37:54.247Z,0.40
2023-08-29T13:40:21.990Z,0.28
2023-08-29T13:42:50.684Z,0.40
2023-08-29T13:45:17.810Z,0.40
2023-08-29T13:47:46.132Z,0.50
2023-08-29T13:50:13.092Z,0.40
2023-08-29T13:52:39.955Z,0.38
2023-08-29T13:55:07.006Z,0.32
2023-08-29T13:57:33.870Z,0.40
2023-08-29T14:00:00.738Z,0.40
2023-08-29T14:02:27.622Z,0.43
2023-08-29T14:04:54.488Z,0.50
2023-08-29T14:07:21.934Z,0.50
2023-08-29T14:09:48.846Z,0.35
2023-08-29T14:12:15.810Z,0.43
2023-08-29T14:14:42.822Z,0.50
2023-08-29T14:17:09.857Z,0.40
2023-08-29T14:19:37.380Z,0.40
2023-08-29T14:22:05.468Z,0.50
2023-08-29T14:24:32.751Z,0.57
2023-08-29T14:26:59.564Z,0.60
2023-08-29T14:29:30.139Z,0.50
2023-08-29T14:31:57.443Z,0.50
2023-08-29T14:34:24.207Z,0.45
2023-08-29T14:36:51.278Z,0.40
2023-08-29T14:39:18.149Z,0.40
2023-08-29T14:41:45.170Z,0.60
2023-08-29T14:44:12.534Z,0.50
2023-08-29T14:46:39.806Z,0.60
2023-08-29T14:49:07.347Z,0.40
2023-08-29T14:51:34.655Z,0.43
2023-08-29T14:54:04.770Z,0.50
2023-08-29T14:56:32.188Z,0.40
2023-08-29T14:59:00.740Z,0.60
2023-08-29T15:01:28.387Z,0.55
2023-08-29T15:03:55.733Z,0.63
2023-08-29T15:06:25.391Z,0.70
2023-08-29T15:08:52.685Z,0.50
2023-08-29T15:11:19.877Z,0.63
2023-08-29T15:13:46.874Z,0.70
2023-08-29T15:16:14.047Z,0.50
2023-08-29T15:18:41.285Z,0.80
2023-08-29T15:21:08.658Z,0.73
2023-08-29T15:23:35.711Z,0.60
2023-08-29T15:26:05.471Z,0.43
2023-08-29T15:31:02.471Z,0.52
2023-08-29T15:33:30.427Z,0.60
2023-08-29T15:36:01.220Z,0.60
2023-08-29T15:38:30.307Z,0.60
2023-08-29T15:40:57.810Z,0.63
2023-08-29T15:43:28.062Z,0.63
2023-08-29T15:45:56.777Z,0.60
2023-08-29T15:48:23.874Z,0.60
2023-08-29T15:50:54.877Z,0.43
2023-08-29T15:53:21.774Z,0.50
2023-08-29T15:55:49.269Z,0.65
2023-08-29T15:58:18.054Z,0.65
2023-08-29T16:00:45.333Z,0.82
2023-08-29T16:03:12.740Z,1.00
2023-08-29T16:05:39.934Z,1.00
2023-08-29T16:08:07.041Z,0.85
2023-08-29T16:10:34.585Z,0.80
2023-08-29T16:13:01.939Z,0.80
2023-08-29T16:15:29.113Z,1.00
2023-08-29T16:17:56.220Z,0.82
2023-08-29T16:20:23.223Z,0.90
2023-08-29T16:22:50.556Z,0.90
2023-08-29T16:25:19.680Z,1.10
2023-08-29T16:27:46.736Z,1.05
2023-08-29T16:30:14.461Z,0.90
2023-08-29T16:32:41.620Z,0.90
2023-08-29T16:35:08.894Z,1.10
2023-08-29T16:37:38.926Z,0.98
2023-08-29T16:40:08.384Z,0.88
2023-08-29T16:42:36.662Z,0.85
2023-08-29T16:45:05.442Z,1.33
2023-08-29T16:47:32.539Z,0.80
2023-08-29T16:49:59.571Z,0.82
2023-08-29T16:52:28.455Z,1.10
2023-08-29T16:54:55.762Z,1.33
2023-08-29T16:57:23.073Z,1.13
2023-08-29T17:00:02.091Z,1.10
2023-08-29T17:02:29.838Z,1.00
2023-08-29T17:04:57.213Z,1.10
2023-08-29T17:07:25.692Z,0.90
2023-08-29T17:09:52.758Z,1.08
2023-08-29T17:12:21.951Z,0.98
2023-08-29T17:14:53.260Z,0.70
2023-08-29T17:17:21.951Z,0.75
2023-08-29T17:19:49.347Z,1.20
2023-08-29T17:22:16.449Z,1.08
2023-08-29T17:24:44.037Z,0.80
2023-08-29T17:27:10.889Z,1.00
2023-08-29T17:29:38.052Z,0.80
2023-08-29T17:32:05.967Z,0.80
2023-08-29T17:34:33.166Z,0.90
2023-08-29T17:37:00.372Z,0.85
2023-08-29T17:39:28.521Z,1.10
2023-08-29T17:41:56.436Z,0.98
2023-08-29T17:44:23.964Z,0.90
2023-08-29T17:46:51.876Z,1.10
2023-08-29T17:49:20.787Z,1.40
2023-08-29T17:51:49.375Z,0.95
2023-08-29T17:54:16.708Z,1.40
2023-08-29T17:56:45.569Z,1.17
2023-08-29T17:59:12.913Z,1.10
2023-08-29T18:01:42.575Z,1.10
2023-08-29T18:04:10.706Z,0.93
2023-08-29T18:06:40.771Z,1.20
2023-08-29T18:09:14.611Z,1.10
2023-08-29T18:11:42.052Z,0.98
2023-08-29T18:14:09.409Z,1.02
2023-08-29T18:16:37.383Z,0.82
2023-08-29T18:19:09.916Z,0.75
2023-08-29T18:21:41.185Z,0.75
2023-08-29T18:24:09.045Z,0.60
2023-08-29T18:26:39.950Z,0.80
2023-08-29T18:29:07.842Z,0.80
2023-08-29T18:31:35.116Z,1.02
2023-08-29T18:34:02.311Z,0.90
2023-08-29T18:36:29.612Z,0.98
2023-08-29T18:39:00.557Z,0.88
2023-08-29T18:41:27.875Z,1.15
2023-08-29T18:43:55.764Z,1.00
2023-08-29T18:46:28.379Z,1.05
2023-08-29T18:48:56.566Z,0.77
2023-08-29T18:51:24.540Z,0.75
2023-08-29T18:53:54.250Z,0.70
2023-08-29T18:56:22.707Z,1.10
2023-08-29T18:58:50.082Z,1.10
2023-08-29T19:01:19.241Z,1.35
2023-08-29T19:03:48.491Z,1.08
2023-08-29T19:06:22.044Z,1.13
2023-08-29T19:08:51.860Z,0.95
2023-08-29T19:13:46.847Z,1.00
2023-08-29T19:16:14.894Z,1.20
2023-08-29T19:18:44.689Z,1.30
2023-08-29T19:23:39.664Z,1.40
2023-08-29T19:26:07.225Z,1.40
2023-08-29T19:28:42.757Z,1.42
2023-08-29T19:31:13.464Z,1.30
2023-08-29T19:33:41.126Z,1.30
2023-08-29T19:36:21.386Z,1.38
2023-08-29T19:38:49.101Z,1.42
2023-08-29T19:41:17.355Z,1.20
2023-08-29T19:43:46.470Z,1.02
2023-08-29T19:46:14.370Z,1.33
2023-08-29T19:48:41.886Z,1.50
2023-08-29T19:51:10.082Z,1.60
2023-08-29T19:53:39.188Z,1.40
2023-08-29T19:56:07.783Z,1.05
2023-08-29T19:58:36.059Z,1.23
2023-08-29T20:01:07.446Z,1.20
2023-08-29T20:03:35.915Z,1.30
2023-08-29T20:06:03.822Z,1.23
2023-08-29T20:08:31.607Z,1.40
2023-08-29T20:10:58.845Z,1.33
2023-08-29T20:13:26.167Z,1.30
2023-08-29T20:15:53.555Z,1.40
2023-08-29T20:18:21.426Z,1.50
2023-08-29T20:20:49.729Z,1.70
2023-08-29T20:23:19.812Z,1.70
2023-08-29T20:25:47.086Z,1.70
2023-08-29T20:28:15.169Z,1.50
2023-08-29T20:30:42.723Z,1.90
2023-08-29T20:33:09.547Z,1.70
2023-08-29T20:35:37.073Z,1.60
2023-08-29T20:38:08.126Z,1.30
2023-08-29T20:40:35.614Z,1.60
2023-08-29T20:43:04.489Z,1.92
2023-08-29T20:45:32.746Z,1.70
2023-08-29T20:47:59.921Z,1.95
2023-08-29T20:50:26.803Z,1.48
2023-08-29T20:52:53.810Z,1.70
2023-08-29T20:55:20.984Z,1.77
2023-08-29T20:57:47.857Z,2.53
2023-08-29T21:00:14.827Z,1.73
2023-08-29T21:02:42.240Z,1.80
2023-08-29T21:05:09.442Z,1.88
2023-08-29T21:07:36.194Z,2.13
2023-08-29T21:10:02.961Z,1.63
2023-08-29T21:12:29.737Z,2.28
2023-08-29T21:14:56.589Z,2.35
2023-08-29T21:17:25.781Z,2.17
2023-08-29T21:19:52.676Z,1.83
2023-08-29T21:22:19.471Z,1.90
2023-08-29T21:24:46.288Z,2.25
2023-08-29T21:27:13.070Z,1.95
2023-08-29T21:29:39.836Z,2.33
2023-08-29T21:32:06.860Z,1.85
2023-08-29T21:34:33.699Z,1.88
2023-08-29T21:37:00.443Z,2.00
2023-08-29T21:39:27.186Z,1.90
2023-08-29T21:41:53.929Z,2.10
2023-08-29T21:44:20.668Z,2.30
2023-08-29T21:46:47.330Z,2.65
2023-08-29T21:49:14.146Z,2.35
2023-08-29T21:51:40.912Z,2.92
2023-08-29T21:54:07.680Z,2.55
2023-08-29T21:56:34.444Z,2.88
2023-08-29T21:59:01.241Z,2.50
2023-08-29T22:01:28.050Z,2.50
2023-08-29T22:03:54.951Z,2.50
2023-08-29T22:06:21.709Z,2.35
2023-08-29T22:08:48.439Z,2.33
2023-08-29T22:11:15.191Z,2.10
2023-08-29T22:13:41.987Z,2.30
2023-08-29T22:16:08.869Z,2.40
2023-08-29T22:18:35.659Z,2.50
2023-08-29T22:21:04.153Z,2.53
2023-08-29T22:23:32.108Z,2.03
2023-08-29T22:25:58.947Z,1.90
2023-08-29T22:28:25.761Z,2.08
2023-08-29T22:30:52.517Z,1.90
2023-08-29T22:33:19.232Z,2.10
2023-08-29T22:35:49.856Z,2.15
2023-08-29T22:38:16.882Z,2.00
2023-08-29T22:40:43.721Z,2.30
2023-08-29T22:43:10.464Z,2.70
2023-08-29T22:45:37.306Z,2.40
2023-08-29T22:48:04.528Z,2.08
2023-08-29T22:50:32.176Z,2.17
2023-08-29T22:52:58.903Z,2.40
2023-08-29T22:55:27.568Z,2.00
2023-08-29T22:57:54.305Z,2.10
2023-08-29T23:03:34.121Z,2.00
2023-08-29T23:06:01.127Z,2.00
2023-08-29T23:08:28.004Z,2.03
2023-08-29T23:10:54.731Z,2.13
2023-08-29T23:13:21.761Z,2.10
2023-08-29T23:15:50.953Z,2.45
2023-08-29T23:18:17.836Z,2.03
2023-08-29T23:20:44.550Z,1.75
2023-08-29T23:23:11.319Z,2.00
2023-08-29T23:25:38.079Z,2.22
2023-08-29T23:28:06.687Z,2.20
2023-08-29T23:30:36.373Z,2.13
2023-08-29T23:33:03.248Z,1.90
2023-08-29T23:35:30.770Z,1.90
2023-08-29T23:37:57.529Z,1.90
2023-08-29T23:40:24.319Z,2.00
2023-08-29T23:42:51.036Z,1.73
2023-08-29T23:45:18.129Z,2.17
2023-08-29T23:47:44.923Z,2.47
2023-08-29T23:50:11.814Z,1.98
2023-08-29T23:52:38.547Z,2.30
2023-08-29T23:55:05.621Z,2.15
2023-08-29T23:57:32.345Z,2.20
2023-08-29T23:59:59.600Z,2.22
